createdAt,value
2017-10-30T00:00:15.466Z,94.65
2017-10-30T00:01:15.457Z,95.03
2017-10-30T00:02:15.441Z,94.84
2017-10-30T00:03:15.430Z,95.03
2017-10-30T00:04:15.422Z,95.07
2017-10-30T00:05:15.403Z,95.03
2017-10-30T00:06:15.398Z,95.12
2017-10-30T00:07:15.384Z,94.65
2017-10-30T00:08:15.370Z,95.03
2017-10-30T00:09:15.363Z,94.93
2017-10-30T00:10:15.346Z,94.93
2017-10-30T00:11:15.333Z,95.07
2017-10-30T00:12:15.326Z,94.84
2017-10-30T00:13:15.311Z,94.89
2017-10-30T00:14:15.297Z,95.36
2017-10-30T00:15:15.293Z,95.07
2017-10-30T00:16:15.273Z,95.36
2017-10-30T00:17:15.266Z,95.12
2017-10-30T00:18:15.249Z,94.84
2017-10-30T00:19:15.240Z,95.07
2017-10-30T00:20:15.229Z,94.74
2017-10-30T00:21:15.214Z,94.42
2017-10-30T00:22:15.206Z,95.46
2017-10-30T00:23:15.207Z,94.79
2017-10-30T00:24:15.181Z,95.36
2017-10-30T00:25:15.165Z,95.31
2017-10-30T00:26:15.165Z,95.60
2017-10-30T00:27:15.143Z,94.98
2017-10-30T00:28:15.132Z,95.17
2017-10-30T00:29:15.121Z,95.84
2017-10-30T00:30:15.112Z,95.07
2017-10-30T00:31:15.104Z,95.17
2017-10-30T00:32:15.088Z,94.89
2017-10-30T00:33:15.073Z,95.17
2017-10-30T00:34:15.071Z,94.79
2017-10-30T00:35:15.124Z,94.98
2017-10-30T00:36:15.038Z,94.70
2017-10-30T00:37:15.027Z,95.17
2017-10-30T00:38:15.015Z,95.07
2017-10-30T00:39:15.002Z,94.89
2017-10-30T00:40:14.990Z,94.89
2017-10-30T00:41:14.979Z,94.42
2017-10-30T00:42:14.970Z,95.17
2017-10-30T00:43:14.956Z,95.36
2017-10-30T00:44:14.947Z,95.84
2017-10-30T00:45:14.936Z,95.84
2017-10-30T00:46:14.919Z,95.07
2017-10-30T00:47:14.909Z,95.36
2017-10-30T00:48:14.901Z,94.98
2017-10-30T00:49:14.882Z,95.46
2017-10-30T00:50:14.872Z,95.17
2017-10-30T00:51:14.862Z,95.93
2017-10-30T00:52:14.853Z,95.17
2017-10-30T00:53:14.834Z,94.98
2017-10-30T00:54:14.823Z,95.46
2017-10-30T00:55:14.816Z,95.07
2017-10-30T00:56:14.801Z,95.93
2017-10-30T00:57:14.788Z,95.65
2017-10-30T00:58:14.779Z,95.07
2017-10-30T00:59:14.767Z,95.84
2017-10-30T01:00:14.752Z,95.74
2017-10-30T01:01:14.743Z,95.27
2017-10-30T01:02:14.749Z,95.65
2017-10-30T01:03:14.720Z,95.65
2017-10-30T01:04:14.705Z,95.46
2017-10-30T01:05:14.699Z,95.65
2017-10-30T01:06:14.683Z,95.74
2017-10-30T01:07:14.675Z,95.41
2017-10-30T01:08:14.656Z,95.07
2017-10-30T01:09:14.646Z,95.12
2017-10-30T01:10:14.633Z,95.41
2017-10-30T01:11:14.627Z,95.12
2017-10-30T01:12:14.621Z,94.65
2017-10-30T01:13:14.602Z,94.65
2017-10-30T01:14:14.587Z,94.93
2017-10-30T01:15:14.576Z,94.93
2017-10-30T01:16:14.570Z,95.51
2017-10-30T01:17:14.550Z,95.41
2017-10-30T01:18:14.540Z,94.93
2017-10-30T01:19:14.530Z,95.22
2017-10-30T01:20:14.520Z,95.12
2017-10-30T01:21:14.505Z,95.41
2017-10-30T01:22:14.491Z,95.70
2017-10-30T01:23:14.485Z,95.22
2017-10-30T01:24:14.468Z,95.22
2017-10-30T01:25:14.456Z,95.03
2017-10-30T01:26:14.443Z,94.74
2017-10-30T01:27:14.446Z,95.22
2017-10-30T01:28:14.423Z,95.12
2017-10-30T01:29:14.413Z,94.65
2017-10-30T01:30:14.397Z,94.93
2017-10-30T01:31:14.394Z,94.74
2017-10-30T01:32:14.373Z,95.03
2017-10-30T01:33:14.361Z,95.41
2017-10-30T01:34:14.354Z,95.03
2017-10-30T01:35:14.344Z,95.12
2017-10-30T01:36:14.329Z,95.12
2017-10-30T01:37:14.316Z,95.12
2017-10-30T01:38:14.304Z,95.03
2017-10-30T01:39:14.291Z,95.03
2017-10-30T01:40:14.279Z,95.79
2017-10-30T01:41:14.267Z,95.12
2017-10-30T01:42:14.256Z,95.74
2017-10-30T01:43:14.243Z,96.12
2017-10-30T01:44:14.239Z,95.74
2017-10-30T01:45:14.220Z,96.03
2017-10-30T01:46:14.209Z,95.93
2017-10-30T01:47:14.201Z,95.84
2017-10-30T01:48:14.184Z,95.55
2017-10-30T01:49:14.176Z,96.03
2017-10-30T01:50:14.165Z,95.93
2017-10-30T01:51:14.150Z,96.59
2017-10-30T01:52:14.137Z,95.93
2017-10-30T01:53:14.128Z,95.84
2017-10-30T01:54:14.114Z,96.12
2017-10-30T01:55:14.106Z,95.84
2017-10-30T01:56:14.093Z,96.12
2017-10-30T01:57:14.077Z,96.12
2017-10-30T01:58:14.066Z,96.12
2017-10-30T01:59:14.061Z,96.31
2017-10-30T02:00:14.042Z,96.50
2017-10-30T02:01:14.031Z,96.41
2017-10-30T02:02:14.019Z,96.50
2017-10-30T02:03:14.007Z,96.50
2017-10-30T02:04:13.999Z,96.50
2017-10-30T02:05:13.982Z,96.88
2017-10-30T02:06:13.971Z,96.78
2017-10-30T02:07:13.958Z,96.69
2017-10-30T02:08:13.949Z,96.78
2017-10-30T02:09:13.937Z,96.12
2017-10-30T02:10:13.925Z,96.50
2017-10-30T02:11:13.917Z,96.59
2017-10-30T02:12:13.900Z,96.88
2017-10-30T02:13:13.887Z,96.78
2017-10-30T02:14:13.875Z,97.36
2017-10-30T02:15:13.866Z,96.78
2017-10-30T02:16:13.851Z,96.59
2017-10-30T02:17:13.841Z,96.78
2017-10-30T02:18:13.827Z,96.78
2017-10-30T02:19:13.820Z,96.78
2017-10-30T02:20:13.807Z,96.69
2017-10-30T02:21:13.797Z,96.69
2017-10-30T02:22:13.780Z,96.69
2017-10-30T02:23:13.769Z,96.69
2017-10-30T02:24:13.762Z,96.31
2017-10-30T02:25:13.747Z,96.78
2017-10-30T02:26:13.738Z,97.55
2017-10-30T02:27:13.720Z,97.45
2017-10-30T02:28:13.714Z,96.78
2017-10-30T02:29:13.698Z,96.78
2017-10-30T02:30:13.688Z,96.59
2017-10-30T02:31:13.673Z,97.07
2017-10-30T02:32:13.661Z,96.78
2017-10-30T02:33:13.650Z,96.59
2017-10-30T02:34:13.643Z,96.69
2017-10-30T02:35:13.626Z,96.69
2017-10-30T02:36:13.615Z,96.50
2017-10-30T02:37:13.605Z,96.97
2017-10-30T02:38:13.590Z,96.50
2017-10-30T02:39:13.582Z,96.78
2017-10-30T02:40:13.565Z,96.78
2017-10-30T02:41:13.557Z,96.88
2017-10-30T02:42:13.543Z,96.97
2017-10-30T02:43:13.534Z,96.50
2017-10-30T02:44:13.518Z,96.59
2017-10-30T02:45:13.511Z,96.31
2017-10-30T02:46:13.533Z,96.69
2017-10-30T02:47:13.485Z,96.50
2017-10-30T02:48:13.477Z,96.12
2017-10-30T02:49:13.459Z,96.78
2017-10-30T02:50:13.448Z,96.78
2017-10-30T02:51:13.455Z,96.50
2017-10-30T02:52:13.422Z,96.88
2017-10-30T02:53:13.412Z,96.88
2017-10-30T02:54:13.401Z,96.22
2017-10-30T02:55:13.390Z,96.50
2017-10-30T02:56:13.375Z,96.41
2017-10-30T02:57:13.362Z,96.69
2017-10-30T02:58:13.357Z,96.41
2017-10-30T02:59:13.345Z,96.22
2017-10-30T03:00:13.327Z,96.78
2017-10-30T03:01:13.319Z,97.36
2017-10-30T03:02:13.304Z,97.17
2017-10-30T03:03:13.295Z,97.17
2017-10-30T03:04:13.279Z,96.97
2017-10-30T03:05:13.281Z,97.26
2017-10-30T03:06:13.257Z,97.45
2017-10-30T03:07:13.259Z,97.45
2017-10-30T03:08:13.232Z,97.45
2017-10-30T03:09:13.223Z,97.45
2017-10-30T03:10:13.208Z,97.26
2017-10-30T03:11:13.199Z,97.74
2017-10-30T03:12:13.186Z,97.64
2017-10-30T03:13:13.174Z,97.64
2017-10-30T03:14:13.162Z,97.64
2017-10-30T03:15:13.149Z,98.07
2017-10-30T03:16:13.135Z,98.35
2017-10-30T03:17:13.125Z,97.97
2017-10-30T03:18:13.118Z,97.88
2017-10-30T03:19:13.103Z,97.88
2017-10-30T03:20:13.087Z,97.88
2017-10-30T03:21:13.076Z,97.88
2017-10-30T03:22:13.063Z,97.88
2017-10-30T03:23:13.065Z,98.16
2017-10-30T03:24:13.040Z,97.97
2017-10-30T03:25:13.030Z,98.07
2017-10-30T03:26:13.018Z,98.35
2017-10-30T03:27:13.006Z,97.97
2017-10-30T03:28:12.991Z,98.07
2017-10-30T03:29:12.982Z,97.78
2017-10-30T03:30:12.968Z,98.11
2017-10-30T03:31:12.958Z,97.97
2017-10-30T03:32:12.943Z,98.11
2017-10-30T03:33:12.937Z,97.97
2017-10-30T03:34:12.924Z,97.21
2017-10-30T03:35:12.910Z,96.97
2017-10-30T03:36:33.903Z,97.26
2017-10-30T03:37:12.887Z,97.36
2017-10-30T03:38:12.879Z,97.26
2017-10-30T03:39:12.861Z,96.69
2017-10-30T03:40:12.850Z,96.97
2017-10-30T03:41:12.838Z,97.45
2017-10-30T03:42:12.823Z,97.26
2017-10-30T03:43:12.812Z,96.97
2017-10-30T03:44:12.804Z,96.78
2017-10-30T03:45:12.792Z,96.31
2017-10-30T03:46:12.776Z,96.88
2017-10-30T03:47:12.765Z,96.41
2017-10-30T03:48:12.751Z,95.93
2017-10-30T03:49:12.739Z,96.59
2017-10-30T03:50:12.728Z,96.50
2017-10-30T03:51:12.718Z,96.59
2017-10-30T03:52:12.704Z,96.22
2017-10-30T03:53:12.694Z,96.88
2017-10-30T03:54:12.683Z,96.97
2017-10-30T03:55:12.681Z,96.50
2017-10-30T03:56:12.662Z,96.69
2017-10-30T03:57:12.646Z,96.50
2017-10-30T03:58:12.633Z,96.69
2017-10-30T03:59:12.621Z,96.69
2017-10-30T04:00:12.609Z,96.69
2017-10-30T04:01:12.597Z,96.41
2017-10-30T04:02:12.585Z,96.50
2017-10-30T04:03:12.571Z,96.12
2017-10-30T04:04:12.561Z,95.46
2017-10-30T04:05:12.548Z,96.12
2017-10-30T04:06:12.539Z,95.84
2017-10-30T04:07:12.531Z,95.65
2017-10-30T04:08:12.512Z,96.41
2017-10-30T04:09:12.503Z,95.93
2017-10-30T04:10:12.489Z,96.12
2017-10-30T04:11:12.479Z,96.31
2017-10-30T04:12:12.469Z,96.59
2017-10-30T04:13:12.453Z,96.31
2017-10-30T04:14:12.443Z,96.50
2017-10-30T04:15:12.429Z,95.84
2017-10-30T04:16:12.420Z,96.12
2017-10-30T04:17:12.406Z,96.12
2017-10-30T04:18:12.399Z,96.22
2017-10-30T04:19:12.383Z,96.22
2017-10-30T04:20:12.370Z,96.22
2017-10-30T04:21:12.361Z,95.93
2017-10-30T04:22:12.347Z,96.50
2017-10-30T04:23:12.333Z,95.65
2017-10-30T04:24:12.321Z,96.22
2017-10-30T04:25:12.312Z,95.65
2017-10-30T04:26:12.298Z,96.22
2017-10-30T04:27:12.289Z,96.41
2017-10-30T04:28:12.277Z,95.84
2017-10-30T04:29:12.263Z,96.88
2017-10-30T04:30:12.251Z,96.78
2017-10-30T04:31:12.238Z,96.22
2017-10-30T04:32:12.227Z,96.88
2017-10-30T04:33:12.220Z,96.97
2017-10-30T04:34:12.202Z,96.78
2017-10-30T04:35:12.190Z,96.59
2017-10-30T04:36:12.179Z,96.59
2017-10-30T04:37:12.172Z,96.69
2017-10-30T04:38:12.154Z,96.59
2017-10-30T04:39:12.143Z,96.41
2017-10-30T04:40:12.140Z,96.22
2017-10-30T04:41:12.139Z,96.78
2017-10-30T04:42:12.108Z,97.55
2017-10-30T04:43:12.099Z,96.78
2017-10-30T04:44:12.090Z,97.55
2017-10-30T04:45:12.070Z,97.45
2017-10-30T04:46:12.059Z,97.17
2017-10-30T04:47:12.049Z,96.88
2017-10-30T04:48:12.054Z,96.78
2017-10-30T04:49:12.028Z,96.78
2017-10-30T04:50:12.014Z,97.64
2017-10-30T04:51:12.001Z,96.78
2017-10-30T04:52:11.988Z,96.78
2017-10-30T04:53:11.976Z,96.69
2017-10-30T04:54:11.965Z,96.78
2017-10-30T04:55:11.951Z,97.55
2017-10-30T04:56:11.940Z,96.78
2017-10-30T04:57:11.928Z,96.88
2017-10-30T04:58:11.916Z,96.69
2017-10-30T04:59:11.910Z,96.78
2017-10-30T05:00:11.893Z,96.78
2017-10-30T05:01:11.886Z,96.78
2017-10-30T05:02:11.875Z,96.88
2017-10-30T05:03:11.858Z,96.78
2017-10-30T05:04:11.843Z,96.97
2017-10-30T05:05:11.838Z,97.64
2017-10-30T05:06:11.823Z,97.55
2017-10-30T05:07:11.813Z,96.78
2017-10-30T05:08:11.800Z,96.50
2017-10-30T05:09:11.787Z,96.78
2017-10-30T05:10:11.776Z,96.78
2017-10-30T05:11:11.763Z,97.36
2017-10-30T05:12:11.750Z,97.17
2017-10-30T05:13:11.740Z,97.45
2017-10-30T05:14:11.727Z,97.45
2017-10-30T05:15:11.727Z,97.36
2017-10-30T05:16:11.702Z,97.92
2017-10-30T05:17:11.693Z,97.07
2017-10-30T05:18:11.681Z,97.40
2017-10-30T05:19:11.666Z,98.07
2017-10-30T05:20:11.656Z,97.64
2017-10-30T05:21:11.643Z,97.74
2017-10-30T05:22:11.634Z,97.74
2017-10-30T05:23:11.618Z,97.50
2017-10-30T05:24:11.607Z,98.11
2017-10-30T05:25:11.596Z,98.11
2017-10-30T05:26:11.581Z,98.11
2017-10-30T05:27:11.573Z,97.92
2017-10-30T05:28:11.568Z,97.92
2017-10-30T05:29:11.546Z,98.11
2017-10-30T05:30:11.535Z,98.21
2017-10-30T05:31:11.524Z,98.02
2017-10-30T05:32:11.510Z,98.02
2017-10-30T05:33:11.500Z,98.02
2017-10-30T05:34:11.517Z,97.64
2017-10-30T05:35:11.476Z,97.74
2017-10-30T05:36:11.463Z,97.92
2017-10-30T05:37:11.452Z,98.30
2017-10-30T05:38:11.440Z,97.36
2017-10-30T05:39:11.430Z,97.36
2017-10-30T05:40:11.414Z,97.26
2017-10-30T05:41:11.410Z,97.36
2017-10-30T05:42:11.392Z,98.11
2017-10-30T05:43:11.382Z,98.11
2017-10-30T05:44:11.366Z,98.02
2017-10-30T05:45:11.354Z,98.02
2017-10-30T05:46:11.347Z,98.02
2017-10-30T05:47:11.331Z,98.11
2017-10-30T05:48:11.320Z,98.02
2017-10-30T05:49:11.307Z,98.02
2017-10-30T05:50:11.297Z,97.83
2017-10-30T05:51:11.282Z,98.40
2017-10-30T05:52:11.289Z,98.21
2017-10-30T05:53:11.260Z,98.02
2017-10-30T05:54:11.249Z,98.59
2017-10-30T05:55:11.237Z,98.87
2017-10-30T05:56:11.223Z,98.68
2017-10-30T05:57:11.215Z,98.49
2017-10-30T05:58:11.200Z,98.78
2017-10-30T05:59:11.192Z,98.68
2017-10-30T06:00:11.177Z,98.59
2017-10-30T06:01:11.169Z,98.78
2017-10-30T06:02:11.153Z,98.59
2017-10-30T06:03:11.153Z,98.97
2017-10-30T06:04:11.127Z,98.40
2017-10-30T06:05:11.117Z,98.97
2017-10-30T06:06:11.105Z,98.78
2017-10-30T06:07:11.110Z,98.97
2017-10-30T06:08:11.084Z,98.59
2017-10-30T06:09:11.072Z,98.78
2017-10-30T06:10:11.058Z,99.06
2017-10-30T06:11:11.050Z,98.78
2017-10-30T06:12:11.034Z,98.97
2017-10-30T06:13:11.021Z,99.26
2017-10-30T06:14:11.010Z,98.87
2017-10-30T06:15:11.000Z,99.44
2017-10-30T06:16:10.987Z,99.35
2017-10-30T06:17:10.973Z,99.35
2017-10-30T06:18:10.961Z,99.06
2017-10-30T06:19:10.950Z,99.35
2017-10-30T06:20:10.939Z,99.16
2017-10-30T06:21:10.930Z,99.35
2017-10-30T06:22:10.919Z,99.73
2017-10-30T06:23:10.905Z,99.54
2017-10-30T06:24:10.894Z,98.97
2017-10-30T06:25:10.884Z,99.26
2017-10-30T06:26:10.878Z,99.54
2017-10-30T06:27:10.854Z,99.35
2017-10-30T06:28:10.842Z,99.35
2017-10-30T06:29:10.831Z,99.06
2017-10-30T06:30:10.820Z,99.44
2017-10-30T06:31:10.808Z,99.06
2017-10-30T06:32:10.797Z,99.54
2017-10-30T06:33:10.783Z,99.54
2017-10-30T06:34:10.779Z,99.06
2017-10-30T06:35:10.760Z,98.40
2017-10-30T06:36:10.749Z,98.87
2017-10-30T06:37:10.737Z,98.49
2017-10-30T06:38:10.724Z,98.68
2017-10-30T06:39:10.713Z,98.78
2017-10-30T06:40:10.711Z,98.68
2017-10-30T06:41:10.688Z,98.87
2017-10-30T06:42:10.677Z,98.78
2017-10-30T06:43:10.664Z,98.30
2017-10-30T06:44:10.652Z,98.30
2017-10-30T06:45:10.640Z,98.21
2017-10-30T06:46:10.634Z,98.78
2017-10-30T06:47:10.619Z,98.49
2017-10-30T06:48:10.605Z,98.11
2017-10-30T06:49:10.595Z,98.49
2017-10-30T06:50:10.584Z,98.11
2017-10-30T06:51:10.571Z,98.40
2017-10-30T06:52:10.562Z,98.78
2017-10-30T06:53:10.544Z,98.49
2017-10-30T06:54:10.533Z,98.49
2017-10-30T06:55:10.524Z,98.02
2017-10-30T06:56:10.510Z,99.06
2017-10-30T06:57:10.498Z,98.78
2017-10-30T06:58:10.488Z,98.49
2017-10-30T06:59:10.491Z,98.78
2017-10-30T07:00:10.463Z,98.97
2017-10-30T07:01:10.454Z,97.92
2017-10-30T07:02:10.443Z,97.92
2017-10-30T07:03:10.431Z,98.11
2017-10-30T07:04:10.430Z,98.40
2017-10-30T07:05:10.405Z,98.30
2017-10-30T07:06:10.397Z,97.36
2017-10-30T07:07:10.385Z,97.78
2017-10-30T07:08:10.373Z,97.50
2017-10-30T07:09:10.360Z,97.60
2017-10-30T07:10:10.346Z,97.60
2017-10-30T07:11:10.336Z,97.12
2017-10-30T07:12:10.323Z,97.69
2017-10-30T07:13:10.312Z,96.93
2017-10-30T07:14:10.298Z,96.93
2017-10-30T07:15:10.298Z,96.45
2017-10-30T07:16:10.278Z,96.83
2017-10-30T07:17:10.273Z,97.12
2017-10-30T07:18:10.253Z,96.74
2017-10-30T07:19:10.272Z,96.74
2017-10-30T07:20:10.229Z,96.93
2017-10-30T07:21:10.218Z,96.64
2017-10-30T07:22:10.209Z,96.74
2017-10-30T07:23:10.197Z,96.83
2017-10-30T07:24:10.185Z,96.55
2017-10-30T07:25:10.172Z,96.74
2017-10-30T07:26:10.160Z,96.93
2017-10-30T07:27:10.147Z,96.64
2017-10-30T07:28:10.136Z,96.36
2017-10-30T07:29:10.125Z,96.55
2017-10-30T07:30:10.115Z,96.64
2017-10-30T07:31:10.104Z,96.55
2017-10-30T07:32:10.090Z,96.64
2017-10-30T07:33:10.079Z,96.55
2017-10-30T07:34:10.068Z,96.74
2017-10-30T07:35:10.058Z,96.83
2017-10-30T07:36:10.043Z,96.64
2017-10-30T07:37:10.035Z,96.55
2017-10-30T07:38:10.023Z,96.36
2017-10-30T07:39:10.012Z,96.36
2017-10-30T07:40:09.999Z,96.26
2017-10-30T07:41:09.988Z,95.89
2017-10-30T07:42:09.979Z,95.41
2017-10-30T07:43:09.967Z,95.12
2017-10-30T07:44:09.953Z,95.31
2017-10-30T07:45:09.944Z,95.22
2017-10-30T07:46:09.932Z,94.93
2017-10-30T07:47:09.920Z,95.98
2017-10-30T07:48:09.912Z,94.93
2017-10-30T07:49:09.905Z,95.31
2017-10-30T07:50:09.887Z,94.93
2017-10-30T07:51:09.875Z,95.03
2017-10-30T07:52:09.863Z,95.36
2017-10-30T07:53:09.855Z,94.65
2017-10-30T07:54:09.852Z,94.51
2017-10-30T07:55:09.830Z,94.51
2017-10-30T07:56:09.820Z,95.27
2017-10-30T07:57:09.810Z,94.89
2017-10-30T07:58:09.797Z,94.89
2017-10-30T07:59:09.786Z,95.27
2017-10-30T08:00:09.776Z,94.60
2017-10-30T08:01:09.762Z,94.89
2017-10-30T08:02:09.752Z,95.08
2017-10-30T08:03:09.740Z,95.17
2017-10-30T08:04:09.737Z,95.17
2017-10-30T08:05:09.720Z,94.79
2017-10-30T08:06:09.717Z,94.60
2017-10-30T08:07:09.699Z,94.70
2017-10-30T08:08:09.687Z,94.70
2017-10-30T08:09:09.676Z,94.32
2017-10-30T08:10:09.666Z,93.94
2017-10-30T08:11:09.653Z,94.03
2017-10-30T08:12:09.644Z,93.94
2017-10-30T08:13:09.631Z,93.08
2017-10-30T08:14:09.622Z,92.99
2017-10-30T08:15:09.609Z,93.23
2017-10-30T08:16:09.606Z,94.03
2017-10-30T08:17:09.596Z,92.94
2017-10-30T08:18:09.588Z,93.04
2017-10-30T08:19:09.567Z,92.27
2017-10-30T08:20:09.556Z,92.27
2017-10-30T08:21:09.546Z,92.37
2017-10-30T08:22:09.538Z,91.80
2017-10-30T08:23:09.526Z,91.80
2017-10-30T08:24:09.515Z,92.08
2017-10-30T08:25:09.508Z,92.56
2017-10-30T08:26:09.495Z,91.80
2017-10-30T08:27:09.487Z,90.94
2017-10-30T08:28:09.478Z,91.61
2017-10-30T08:29:09.464Z,91.80
2017-10-30T08:30:09.452Z,92.18
2017-10-30T08:31:09.444Z,91.61
2017-10-30T08:32:09.431Z,91.80
2017-10-30T08:33:09.421Z,91.52
2017-10-30T08:34:09.412Z,91.52
2017-10-30T08:35:09.401Z,91.71
2017-10-30T08:36:09.391Z,91.99
2017-10-30T08:37:09.382Z,91.52
2017-10-30T08:38:09.369Z,91.04
2017-10-30T08:39:09.358Z,90.37
2017-10-30T08:40:09.350Z,90.47
2017-10-30T08:41:09.340Z,90.56
2017-10-30T08:42:09.329Z,91.61
2017-10-30T08:43:09.319Z,91.52
2017-10-30T08:44:09.307Z,90.75
2017-10-30T08:45:09.300Z,90.09
2017-10-30T08:46:09.294Z,90.56
2017-10-30T08:47:09.277Z,90.94
2017-10-30T08:48:09.266Z,90.75
2017-10-30T08:49:09.255Z,91.13
2017-10-30T08:50:09.245Z,91.80
2017-10-30T08:51:09.236Z,92.37
2017-10-30T08:52:09.229Z,92.37
2017-10-30T08:53:09.219Z,93.04
2017-10-30T08:54:09.209Z,92.85
2017-10-30T08:55:09.196Z,93.13
2017-10-30T08:56:09.183Z,92.37
2017-10-30T08:57:09.173Z,92.27
2017-10-30T08:58:09.163Z,92.27
2017-10-30T08:59:09.153Z,92.08
2017-10-30T09:00:09.145Z,92.08
2017-10-30T09:01:09.133Z,92.56
2017-10-30T09:02:09.123Z,93.13
2017-10-30T09:03:09.113Z,92.46
2017-10-30T09:04:09.103Z,93.04
2017-10-30T09:05:09.092Z,93.08
2017-10-30T09:06:09.081Z,91.85
2017-10-30T09:07:09.074Z,91.70
2017-10-30T09:08:09.061Z,90.18
2017-10-30T09:09:09.055Z,89.04
2017-10-30T09:10:09.043Z,87.75
2017-10-30T09:11:09.035Z,87.27
2017-10-30T09:12:09.025Z,86.13
2017-10-30T09:13:09.015Z,87.46
2017-10-30T09:14:09.009Z,87.56
2017-10-30T09:15:08.999Z,88.08
2017-10-30T09:16:08.990Z,86.27
2017-10-30T09:17:08.983Z,86.55
2017-10-30T09:18:08.976Z,84.65
2017-10-30T09:19:08.968Z,84.79
2017-10-30T09:20:08.966Z,84.88
2017-10-30T09:21:08.953Z,84.50
2017-10-30T09:22:08.945Z,83.74
2017-10-30T09:23:08.939Z,84.65
2017-10-30T09:24:08.938Z,82.93
2017-10-30T09:25:08.922Z,83.51
2017-10-30T09:26:08.915Z,83.80
2017-10-30T09:27:08.916Z,83.03
2017-10-30T09:28:08.901Z,84.17
2017-10-30T09:29:08.902Z,85.60
2017-10-30T09:30:08.916Z,86.27
2017-10-30T09:31:08.878Z,85.18
2017-10-30T09:32:08.873Z,86.70
2017-10-30T09:33:08.860Z,85.66
2017-10-30T09:34:08.862Z,85.18
2017-10-30T09:35:08.845Z,86.32
2017-10-30T09:36:08.842Z,84.42
2017-10-30T09:37:08.829Z,85.28
2017-10-30T09:38:08.822Z,86.42
2017-10-30T09:39:08.813Z,85.56
2017-10-30T09:40:08.814Z,85.37
2017-10-30T09:41:08.800Z,86.42
2017-10-30T09:42:08.790Z,86.70
2017-10-30T09:43:08.785Z,86.70
2017-10-30T09:44:08.771Z,86.42
2017-10-30T09:45:08.764Z,86.90
2017-10-30T09:46:08.755Z,85.37
2017-10-30T09:47:08.745Z,84.46
2017-10-30T09:48:08.741Z,84.94
2017-10-30T09:49:08.730Z,86.36
2017-10-30T09:50:08.734Z,85.64
2017-10-30T09:51:08.714Z,83.55
2017-10-30T09:52:08.706Z,83.93
2017-10-30T09:53:08.700Z,83.84
2017-10-30T09:54:08.692Z,83.55
2017-10-30T09:55:08.689Z,84.31
2017-10-30T09:56:08.676Z,82.12
2017-10-30T09:57:08.671Z,82.79
2017-10-30T09:58:08.666Z,81.74
2017-10-30T09:59:08.657Z,82.26
2017-10-30T10:00:08.652Z,81.40
2017-10-30T10:01:08.641Z,80.73
2017-10-30T10:02:08.638Z,79.68
2017-10-30T10:03:08.641Z,79.21
2017-10-30T10:04:08.623Z,79.59
2017-10-30T10:05:08.618Z,80.16
2017-10-30T10:06:08.612Z,80.07
2017-10-30T10:07:08.606Z,79.59
2017-10-30T10:08:08.599Z,80.77
2017-10-30T10:09:08.592Z,80.26
2017-10-30T10:10:08.602Z,81.06
2017-10-30T10:11:08.610Z,79.72
2017-10-30T10:12:08.572Z,79.53
2017-10-30T10:13:08.582Z,80.01
2017-10-30T10:14:08.561Z,80.77
2017-10-30T10:15:08.555Z,79.63
2017-10-30T10:16:08.551Z,80.11
2017-10-30T10:17:08.543Z,79.15
2017-10-30T10:18:08.544Z,79.25
2017-10-30T10:19:08.531Z,79.44
2017-10-30T10:20:08.525Z,80.49
2017-10-30T10:21:08.519Z,80.20
2017-10-30T10:22:08.514Z,79.72
2017-10-30T10:23:08.520Z,79.44
2017-10-30T10:24:08.502Z,79.63
2017-10-30T10:25:08.503Z,80.58
2017-10-30T10:26:08.490Z,79.53
2017-10-30T10:27:08.483Z,80.01
2017-10-30T10:28:08.480Z,82.20
2017-10-30T10:29:08.469Z,80.39
2017-10-30T10:30:08.465Z,81.73
2017-10-30T10:31:08.460Z,80.87
2017-10-30T10:32:08.452Z,79.82
2017-10-30T10:33:09.189Z,80.30
2017-10-30T10:34:08.445Z,79.53
2017-10-30T10:35:08.437Z,80.39
2017-10-30T10:36:08.428Z,78.39
2017-10-30T10:37:08.422Z,76.29
2017-10-30T10:38:08.420Z,77.25
2017-10-30T10:39:08.412Z,78.14
2017-10-30T10:40:08.406Z,77.67
2017-10-30T10:41:08.407Z,79.35
2017-10-30T10:42:08.394Z,79.00
2017-10-30T10:43:08.395Z,78.30
2017-10-30T10:44:08.384Z,76.96
2017-10-30T10:45:08.378Z,78.20
2017-10-30T10:46:08.373Z,78.20
2017-10-30T10:47:08.366Z,79.06
2017-10-30T10:48:08.360Z,78.39
2017-10-30T10:49:08.359Z,77.25
2017-10-30T10:50:08.351Z,78.43
2017-10-30T10:51:08.349Z,79.00
2017-10-30T10:52:08.340Z,78.52
2017-10-30T10:53:08.337Z,76.81
2017-10-30T10:54:08.334Z,77.03
2017-10-30T10:55:08.330Z,75.79
2017-10-30T10:56:08.323Z,73.12
2017-10-30T10:57:08.321Z,75.42
2017-10-30T10:58:08.322Z,75.60
2017-10-30T10:59:08.316Z,76.56
2017-10-30T11:00:08.312Z,74.98
2017-10-30T11:01:08.313Z,76.03
2017-10-30T11:02:08.309Z,74.49
2017-10-30T11:03:08.307Z,76.12
2017-10-30T11:04:08.302Z,74.02
2017-10-30T11:05:08.301Z,72.53
2017-10-30T11:06:08.299Z,72.24
2017-10-30T11:07:08.297Z,72.53
2017-10-30T11:08:08.299Z,71.57
2017-10-30T11:09:08.293Z,70.04
2017-10-30T11:10:08.295Z,69.98
2017-10-30T11:11:08.293Z,67.59
2017-10-30T11:12:08.313Z,70.07
2017-10-30T11:13:08.291Z,69.89
2017-10-30T11:14:08.299Z,68.35
2017-10-30T11:15:08.300Z,68.64
2017-10-30T11:16:08.291Z,71.42
2017-10-30T11:17:08.289Z,66.25
2017-10-30T11:18:08.290Z,69.31
2017-10-30T11:19:08.289Z,72.18
2017-10-30T11:20:08.291Z,69.50
2017-10-30T11:21:08.298Z,70.11
2017-10-30T11:22:08.295Z,70.01
2017-10-30T11:23:08.298Z,68.58
2017-10-30T11:24:09.218Z,67.63
2017-10-30T11:25:08.295Z,67.14
2017-10-30T11:26:08.297Z,69.54
2017-10-30T11:27:08.306Z,66.19
2017-10-30T11:28:08.298Z,64.85
2017-10-30T11:29:08.297Z,65.61
2017-10-30T11:30:08.303Z,66.54
2017-10-30T11:31:08.301Z,68.16
2017-10-30T11:32:08.299Z,68.16
2017-10-30T11:33:08.298Z,65.48
2017-10-30T11:34:08.300Z,66.06
2017-10-30T11:35:08.298Z,66.25
2017-10-30T11:36:08.298Z,66.54
2017-10-30T11:37:08.298Z,67.69
2017-10-30T11:38:08.298Z,68.64
2017-10-30T11:39:08.298Z,70.27
2017-10-30T11:40:08.296Z,70.46
2017-10-30T11:41:08.295Z,69.60
2017-10-30T11:42:08.301Z,70.17
2017-10-30T11:43:08.295Z,68.26
2017-10-30T11:44:08.292Z,69.21
2017-10-30T11:45:08.298Z,68.84
2017-10-30T11:46:08.301Z,68.93
2017-10-30T11:47:08.292Z,67.78
2017-10-30T11:48:08.289Z,67.40
2017-10-30T11:49:08.289Z,65.58
2017-10-30T11:50:08.288Z,66.44
2017-10-30T11:51:08.294Z,66.83
2017-10-30T11:52:08.285Z,67.69
2017-10-30T11:53:08.283Z,66.35
2017-10-30T11:54:08.288Z,67.21
2017-10-30T11:55:08.282Z,67.69
2017-10-30T11:56:08.280Z,67.24
2017-10-30T11:57:08.279Z,65.42
2017-10-30T11:58:08.277Z,67.72
2017-10-30T11:59:08.283Z,65.68
2017-10-30T12:00:08.274Z,66.92
2017-10-30T12:01:08.276Z,67.11
2017-10-30T12:02:08.270Z,66.25
2017-10-30T12:03:08.268Z,66.22
2017-10-30T12:04:08.264Z,67.27
2017-10-30T12:05:08.264Z,67.27
2017-10-30T12:06:08.267Z,69.27
2017-10-30T12:07:08.261Z,70.90
2017-10-30T12:08:08.257Z,70.23
2017-10-30T12:09:08.266Z,68.86
2017-10-30T12:10:08.249Z,70.39
2017-10-30T12:11:08.246Z,70.39
2017-10-30T12:12:08.243Z,69.82
2017-10-30T12:13:08.241Z,70.29
2017-10-30T12:14:08.239Z,70.67
2017-10-30T12:15:08.234Z,70.87
2017-10-30T12:16:08.228Z,71.82
2017-10-30T12:17:08.226Z,72.39
2017-10-30T12:18:08.220Z,72.39
2017-10-30T12:19:08.216Z,72.36
2017-10-30T12:20:08.218Z,70.54
2017-10-30T12:21:08.207Z,70.64
2017-10-30T12:22:08.204Z,72.93
2017-10-30T12:23:08.198Z,72.26
2017-10-30T12:24:08.193Z,71.21
2017-10-30T12:25:08.190Z,71.12
2017-10-30T12:26:08.189Z,72.20
2017-10-30T12:27:08.181Z,71.98
2017-10-30T12:28:08.175Z,70.87
2017-10-30T12:29:08.173Z,69.40
2017-10-30T12:30:08.167Z,71.92
2017-10-30T12:31:08.163Z,70.87
2017-10-30T12:32:08.180Z,68.86
2017-10-30T12:33:08.158Z,71.15
2017-10-30T12:34:08.152Z,70.01
2017-10-30T12:35:08.146Z,70.87
2017-10-30T12:36:08.141Z,69.34
2017-10-30T12:37:08.138Z,70.87
2017-10-30T12:38:08.134Z,69.15
2017-10-30T12:39:08.133Z,71.44
2017-10-30T12:40:08.130Z,69.76
2017-10-30T12:41:08.124Z,70.04
2017-10-30T12:42:08.133Z,69.85
2017-10-30T12:43:08.123Z,69.95
2017-10-30T12:44:08.118Z,69.95
2017-10-30T12:45:08.112Z,69.76
2017-10-30T12:46:08.112Z,69.56
2017-10-30T12:47:08.109Z,69.09
2017-10-30T12:48:08.106Z,67.65
2017-10-30T12:49:08.102Z,68.51
2017-10-30T12:50:08.098Z,68.51
2017-10-30T12:51:08.097Z,70.07
2017-10-30T12:52:08.092Z,68.16